Poza Rica, VER, Mexico
Current Conditions -  °F | °C
As of 8:40 PM on Saturday 25 Oct 2014 (Local Time) from MMPA Reporting Station
Clear Clear  
Wind Chill: 77°   Ceiling: Unl
Heat Index: 78°   Visibility: 6mi
Dew Point: 73°   Wind: 0mph
Humidity: 89%   Direction: NA
Pressure: 30.1"   Gusts: NA
Location:  20.55°N, 97.47°W
Report Text: MMPA 260140Z 00000KT 6SM SKC 25/23 A3010 RMK HZY
Loading
Personal Weather Stations






























Interactive Weather Map
Tropical Storm Tracking
New forecast layout! Learn more

10-Day Weather Forecast

Advertisements
Track Severe Weather on mobile